sensor_id;sensor_type;location;lat;lon;timestamp;P1;P2;P0
73148;PMS7003;61346;48.930;2.266;2023-02-22T00:00:42;73.50;57.25;37.25
73148;PMS7003;61346;48.930;2.266;2023-02-22T00:06:03;72.75;57.00;36.00
73148;PMS7003;61346;48.930;2.266;2023-02-22T00:08:35;72.75;56.50;35.50
73148;PMS7003;61346;48.930;2.266;2023-02-22T00:11:02;72.50;56.00;37.00
73148;PMS7003;61346;48.930;2.266;2023-02-22T00:13:32;69.25;56.00;37.00
73148;PMS7003;61346;48.930;2.266;2023-02-22T00:15:58;75.00;60.50;37.50
73148;PMS7003;61346;48.930;2.266;2023-02-22T00:18:25;78.50;65.50;44.75
73148;PMS7003;61346;48.930;2.266;2023-02-22T00:20:56;79.75;59.00;37.75
73148;PMS7003;61346;48.930;2.266;2023-02-22T00:23:26;75.25;59.75;38.75
73148;PMS7003;61346;48.930;2.266;2023-02-22T00:25:53;82.25;66.50;38.25
73148;PMS7003;61346;48.930;2.266;2023-02-22T00:28:20;77.00;61.75;38.25
73148;PMS7003;61346;48.930;2.266;2023-02-22T00:30:48;73.25;57.75;37.00
73148;PMS7003;61346;48.930;2.266;2023-02-22T00:33:14;75.25;62.00;38.75
73148;PMS7003;61346;48.930;2.266;2023-02-22T00:35:41;35.75;25.75;0.00
73148;PMS7003;61346;48.930;2.266;2023-02-22T00:38:10;74.25;59.00;37.75
73148;PMS7003;61346;48.930;2.266;2023-02-22T00:40:36;77.75;63.00;40.25
73148;PMS7003;61346;48.930;2.266;2023-02-22T00:43:03;74.75;60.00;39.50
73148;PMS7003;61346;48.930;2.266;2023-02-22T00:45:30;74.00;58.50;42.25
73148;PMS7003;61346;48.930;2.266;2023-02-22T00:47:57;76.75;62.75;38.75
73148;PMS7003;61346;48.930;2.266;2023-02-22T00:50:24;76.50;62.00;40.50
73148;PMS7003;61346;48.930;2.266;2023-02-22T00:52:52;74.25;59.75;38.25
73148;PMS7003;61346;48.930;2.266;2023-02-22T00:55:22;78.25;60.75;38.75
73148;PMS7003;61346;48.930;2.266;2023-02-22T00:57:49;76.75;61.75;42.00
73148;PMS7003;61346;48.930;2.266;2023-02-22T01:00:17;78.50;65.00;40.00
73148;PMS7003;61346;48.930;2.266;2023-02-22T01:02:45;73.25;58.25;38.25
73148;PMS7003;61346;48.930;2.266;2023-02-22T01:05:11;71.50;57.25;37.75
73148;PMS7003;61346;48.930;2.266;2023-02-22T01:07:37;78.75;62.50;40.75
73148;PMS7003;61346;48.930;2.266;2023-02-22T01:10:04;76.25;61.50;38.00
73148;PMS7003;61346;48.930;2.266;2023-02-22T01:12:30;80.00;65.00;39.75
73148;PMS7003;61346;48.930;2.266;2023-02-22T01:14:56;76.00;60.00;38.50
73148;PMS7003;61346;48.930;2.266;2023-02-22T01:17:25;78.50;64.75;40.75
73148;PMS7003;61346;48.930;2.266;2023-02-22T01:19:53;77.00;63.00;38.75
73148;PMS7003;61346;48.930;2.266;2023-02-22T01:22:19;76.75;63.25;41.25
73148;PMS7003;61346;48.930;2.266;2023-02-22T01:24:46;78.25;63.50;39.00
73148;PMS7003;61346;48.930;2.266;2023-02-22T01:27:15;82.25;67.25;40.75
73148;PMS7003;61346;48.930;2.266;2023-02-22T01:29:42;74.50;60.00;37.25
73148;PMS7003;61346;48.930;2.266;2023-02-22T01:32:07;74.75;57.00;37.50
73148;PMS7003;61346;48.930;2.266;2023-02-22T01:34:33;73.25;56.50;38.00
73148;PMS7003;61346;48.930;2.266;2023-02-22T01:36:59;77.25;62.50;39.50
73148;PMS7003;61346;48.930;2.266;2023-02-22T01:39:26;74.75;57.75;38.50
73148;PMS7003;61346;48.930;2.266;2023-02-22T01:41:52;76.75;60.00;39.75
73148;PMS7003;61346;48.930;2.266;2023-02-22T01:44:26;80.50;68.25;40.25
73148;PMS7003;61346;48.930;2.266;2023-02-22T01:46:57;79.50;61.75;42.00
73148;PMS7003;61346;48.930;2.266;2023-02-22T01:49:30;76.50;61.25;41.75
73148;PMS7003;61346;48.930;2.266;2023-02-22T01:52:09;81.50;64.00;41.00
73148;PMS7003;61346;48.930;2.266;2023-02-22T01:54:47;79.00;63.50;38.00
73148;PMS7003;61346;48.930;2.266;2023-02-22T01:59:49;76.00;57.50;36.25
73148;PMS7003;61346;48.930;2.266;2023-02-22T02:02:17;77.50;59.75;41.00
73148;PMS7003;61346;48.930;2.266;2023-02-22T02:04:45;73.25;57.50;36.50
73148;PMS7003;61346;48.930;2.266;2023-02-22T02:07:13;77.50;62.25;39.75
73148;PMS7003;61346;48.930;2.266;2023-02-22T02:12:33;77.00;61.75;40.00
73148;PMS7003;61346;48.930;2.266;2023-02-22T02:17:43;78.75;60.75;39.00
73148;PMS7003;61346;48.930;2.266;2023-02-22T02:20:18;76.75;60.25;40.75
73148;PMS7003;61346;48.930;2.266;2023-02-22T02:23:07;79.50;65.25;42.00
73148;PMS7003;61346;48.930;2.266;2023-02-22T02:36:43;76.75;61.25;39.50
73148;PMS7003;61346;48.930;2.266;2023-02-22T02:42:10;76.00;58.75;39.25
73148;PMS7003;61346;48.930;2.266;2023-02-22T02:44:51;72.25;56.75;37.25
73148;PMS7003;61346;48.930;2.266;2023-02-22T02:47:43;78.75;61.00;39.00
73148;PMS7003;61346;48.930;2.266;2023-02-22T02:50:17;76.50;60.50;40.00
73148;PMS7003;61346;48.930;2.266;2023-02-22T02:52:49;71.75;56.75;37.00
73148;PMS7003;61346;48.930;2.266;2023-02-22T02:55:19;76.00;59.00;39.50
73148;PMS7003;61346;48.930;2.266;2023-02-22T02:57:45;75.75;60.00;39.75
73148;PMS7003;61346;48.930;2.266;2023-02-22T03:00:11;68.75;56.50;36.50
73148;PMS7003;61346;48.930;2.266;2023-02-22T03:02:52;77.75;61.50;40.00
73148;PMS7003;61346;48.930;2.266;2023-02-22T03:11:42;77.00;58.25;39.00
73148;PMS7003;61346;48.930;2.266;2023-02-22T03:14:21;74.50;56.75;38.50
73148;PMS7003;61346;48.930;2.266;2023-02-22T03:17:00;72.25;56.75;36.50
73148;PMS7003;61346;48.930;2.266;2023-02-22T03:19:37;69.50;56.25;37.00
73148;PMS7003;61346;48.930;2.266;2023-02-22T03:22:11;71.50;56.75;37.50
73148;PMS7003;61346;48.930;2.266;2023-02-22T03:24:50;71.00;55.50;36.25
73148;PMS7003;61346;48.930;2.266;2023-02-22T03:27:27;79.75;61.00;37.25
73148;PMS7003;61346;48.930;2.266;2023-02-22T03:30:02;74.50;57.25;38.25
73148;PMS7003;61346;48.930;2.266;2023-02-22T03:32:36;72.25;55.75;37.00
73148;PMS7003;61346;48.930;2.266;2023-02-22T03:35:07;70.25;55.00;36.25
73148;PMS7003;61346;48.930;2.266;2023-02-22T03:37:40;71.25;55.50;35.75
73148;PMS7003;61346;48.930;2.266;2023-02-22T03:40:10;68.00;54.75;37.25
73148;PMS7003;61346;48.930;2.266;2023-02-22T03:42:44;71.75;56.00;37.25
73148;PMS7003;61346;48.930;2.266;2023-02-22T03:45:12;72.00;55.00;35.50
73148;PMS7003;61346;48.930;2.266;2023-02-22T03:47:44;72.25;57.00;37.00
73148;PMS7003;61346;48.930;2.266;2023-02-22T03:50:17;49.00;40.25;16.00
73148;PMS7003;61346;48.930;2.266;2023-02-22T03:52:50;74.25;57.50;37.00
73148;PMS7003;61346;48.930;2.266;2023-02-22T03:55:16;68.75;55.00;35.25
73148;PMS7003;61346;48.930;2.266;2023-02-22T03:57:47;72.00;56.25;36.25
73148;PMS7003;61346;48.930;2.266;2023-02-22T04:00:19;71.25;55.25;37.25
73148;PMS7003;61346;48.930;2.266;2023-02-22T04:02:47;75.25;57.00;36.25
73148;PMS7003;61346;48.930;2.266;2023-02-22T04:05:12;69.75;56.00;36.75
73148;PMS7003;61346;48.930;2.266;2023-02-22T04:07:38;75.50;57.25;37.00
73148;PMS7003;61346;48.930;2.266;2023-02-22T04:10:04;72.75;56.25;37.25
73148;PMS7003;61346;48.930;2.266;2023-02-22T04:12:33;72.50;56.75;36.75
73148;PMS7003;61346;48.930;2.266;2023-02-22T04:14:59;71.25;56.50;38.00
73148;PMS7003;61346;48.930;2.266;2023-02-22T04:17:25;70.25;55.75;35.75
73148;PMS7003;61346;48.930;2.266;2023-02-22T04:19:51;69.25;54.00;35.25
73148;PMS7003;61346;48.930;2.266;2023-02-22T04:22:16;72.00;57.00;37.25
73148;PMS7003;61346;48.930;2.266;2023-02-22T04:24:42;69.00;52.75;33.75
73148;PMS7003;61346;48.930;2.266;2023-02-22T04:27:07;70.25;54.50;36.25
73148;PMS7003;61346;48.930;2.266;2023-02-22T04:29:33;74.25;57.00;38.00
73148;PMS7003;61346;48.930;2.266;2023-02-22T04:31:58;70.00;55.25;36.75
73148;PMS7003;61346;48.930;2.266;2023-02-22T04:34:23;70.00;55.75;37.25
73148;PMS7003;61346;48.930;2.266;2023-02-22T04:36:49;67.00;52.75;35.50
73148;PMS7003;61346;48.930;2.266;2023-02-22T04:39:14;69.00;55.00;36.25
73148;PMS7003;61346;48.930;2.266;2023-02-22T04:41:41;70.75;56.00;36.50
73148;PMS7003;61346;48.930;2.266;2023-02-22T04:44:07;70.75;57.25;36.75
73148;PMS7003;61346;48.930;2.266;2023-02-22T04:46:32;73.50;57.25;38.00
73148;PMS7003;61346;48.930;2.266;2023-02-22T04:48:58;69.75;52.00;34.25
73148;PMS7003;61346;48.930;2.266;2023-02-22T04:51:23;72.75;55.00;36.00
73148;PMS7003;61346;48.930;2.266;2023-02-22T04:53:49;69.00;56.50;36.50
73148;PMS7003;61346;48.930;2.266;2023-02-22T04:56:17;69.50;56.25;37.75
73148;PMS7003;61346;48.930;2.266;2023-02-22T04:58:43;68.00;54.75;37.00
73148;PMS7003;61346;48.930;2.266;2023-02-22T05:01:08;69.50;54.00;34.50
73148;PMS7003;61346;48.930;2.266;2023-02-22T05:03:36;72.00;56.25;37.00
73148;PMS7003;61346;48.930;2.266;2023-02-22T05:06:02;75.50;56.75;37.25
73148;PMS7003;61346;48.930;2.266;2023-02-22T05:08:27;64.25;52.75;36.00
73148;PMS7003;61346;48.930;2.266;2023-02-22T05:10:53;68.00;55.00;35.25
73148;PMS7003;61346;48.930;2.266;2023-02-22T05:13:19;66.75;53.25;37.00
73148;PMS7003;61346;48.930;2.266;2023-02-22T05:15:44;67.50;56.25;37.25
73148;PMS7003;61346;48.930;2.266;2023-02-22T05:18:10;69.25;54.75;35.00
73148;PMS7003;61346;48.930;2.266;2023-02-22T05:20:36;71.25;54.75;38.00
73148;PMS7003;61346;48.930;2.266;2023-02-22T05:23:01;70.00;54.75;35.00
73148;PMS7003;61346;48.930;2.266;2023-02-22T05:25:27;69.75;55.50;36.00
73148;PMS7003;61346;48.930;2.266;2023-02-22T05:27:54;69.75;54.00;36.75
73148;PMS7003;61346;48.930;2.266;2023-02-22T05:30:22;62.25;49.25;32.00
73148;PMS7003;61346;48.930;2.266;2023-02-22T05:32:50;62.25;49.75;33.00
73148;PMS7003;61346;48.930;2.266;2023-02-22T05:35:17;61.25;48.50;33.00
73148;PMS7003;61346;48.930;2.266;2023-02-22T05:37:45;52.50;43.75;31.00
73148;PMS7003;61346;48.930;2.266;2023-02-22T05:40:11;60.25;45.75;30.50
73148;PMS7003;61346;48.930;2.266;2023-02-22T05:42:38;51.25;40.25;26.75
73148;PMS7003;61346;48.930;2.266;2023-02-22T05:45:05;49.00;40.25;27.25
73148;PMS7003;61346;48.930;2.266;2023-02-22T05:47:31;49.50;40.00;27.00
73148;PMS7003;61346;48.930;2.266;2023-02-22T05:49:56;49.50;41.25;27.00
73148;PMS7003;61346;48.930;2.266;2023-02-22T05:52:21;46.25;39.50;26.25
73148;PMS7003;61346;48.930;2.266;2023-02-22T05:54:48;51.75;39.50;26.25
73148;PMS7003;61346;48.930;2.266;2023-02-22T05:57:14;49.25;41.25;27.00
73148;PMS7003;61346;48.930;2.266;2023-02-22T05:59:40;44.75;37.00;26.25
73148;PMS7003;61346;48.930;2.266;2023-02-22T06:02:06;48.75;41.75;27.00
73148;PMS7003;61346;48.930;2.266;2023-02-22T06:04:32;59.50;44.75;29.00
73148;PMS7003;61346;48.930;2.266;2023-02-22T06:06:58;55.00;46.25;29.75
73148;PMS7003;61346;48.930;2.266;2023-02-22T06:09:23;58.50;46.75;31.00
73148;PMS7003;61346;48.930;2.266;2023-02-22T06:11:48;58.25;46.75;31.50
73148;PMS7003;61346;48.930;2.266;2023-02-22T06:14:14;55.25;45.00;30.25
73148;PMS7003;61346;48.930;2.266;2023-02-22T06:16:39;59.00;46.25;31.00
73148;PMS7003;61346;48.930;2.266;2023-02-22T06:19:05;53.75;45.00;30.00
73148;PMS7003;61346;48.930;2.266;2023-02-22T06:21:30;58.75;46.75;30.25
73148;PMS7003;61346;48.930;2.266;2023-02-22T06:23:55;57.25;47.00;31.75
73148;PMS7003;61346;48.930;2.266;2023-02-22T06:26:21;57.50;45.75;30.75
73148;PMS7003;61346;48.930;2.266;2023-02-22T06:28:47;48.00;41.50;28.75
73148;PMS7003;61346;48.930;2.266;2023-02-22T06:31:12;51.75;42.25;30.50
73148;PMS7003;61346;48.930;2.266;2023-02-22T06:33:38;49.00;40.50;27.75
73148;PMS7003;61346;48.930;2.266;2023-02-22T06:36:03;52.75;42.25;29.00
73148;PMS7003;61346;48.930;2.266;2023-02-22T06:38:29;52.25;42.75;28.00
73148;PMS7003;61346;48.930;2.266;2023-02-22T06:40:54;53.00;43.00;30.00
73148;PMS7003;61346;48.930;2.266;2023-02-22T06:43:21;54.75;43.00;29.00
73148;PMS7003;61346;48.930;2.266;2023-02-22T06:45:48;53.75;44.25;28.75
73148;PMS7003;61346;48.930;2.266;2023-02-22T06:48:14;52.00;42.50;27.00
73148;PMS7003;61346;48.930;2.266;2023-02-22T06:50:39;51.50;42.50;29.50
73148;PMS7003;61346;48.930;2.266;2023-02-22T06:53:05;53.50;41.25;29.00
73148;PMS7003;61346;48.930;2.266;2023-02-22T06:55:31;47.50;39.50;26.00
73148;PMS7003;61346;48.930;2.266;2023-02-22T06:57:58;52.00;43.00;29.25
73148;PMS7003;61346;48.930;2.266;2023-02-22T07:00:24;55.25;44.00;29.75
73148;PMS7003;61346;48.930;2.266;2023-02-22T07:02:51;59.25;46.00;29.00
73148;PMS7003;61346;48.930;2.266;2023-02-22T07:05:19;51.25;43.25;27.75
73148;PMS7003;61346;48.930;2.266;2023-02-22T07:07:47;54.50;44.00;28.00
73148;PMS7003;61346;48.930;2.266;2023-02-22T07:10:26;51.75;41.75;26.00
73148;PMS7003;61346;48.930;2.266;2023-02-22T07:12:53;52.75;42.75;27.50
73148;PMS7003;61346;48.930;2.266;2023-02-22T07:15:20;55.50;43.50;29.75
73148;PMS7003;61346;48.930;2.266;2023-02-22T07:17:47;54.00;44.75;30.75
73148;PMS7003;61346;48.930;2.266;2023-02-22T07:20:13;57.50;45.25;30.25
73148;PMS7003;61346;48.930;2.266;2023-02-22T07:22:39;50.25;41.00;28.50
73148;PMS7003;61346;48.930;2.266;2023-02-22T07:25:05;48.25;42.00;28.75
73148;PMS7003;61346;48.930;2.266;2023-02-22T07:27:34;57.25;44.50;30.50
73148;PMS7003;61346;48.930;2.266;2023-02-22T07:30:00;50.75;41.50;29.50
73148;PMS7003;61346;48.930;2.266;2023-02-22T07:32:25;52.50;43.75;30.00
73148;PMS7003;61346;48.930;2.266;2023-02-22T07:34:51;56.50;46.00;30.75
73148;PMS7003;61346;48.930;2.266;2023-02-22T07:37:16;53.00;44.00;27.00
73148;PMS7003;61346;48.930;2.266;2023-02-22T07:39:42;53.00;42.00;27.00
73148;PMS7003;61346;48.930;2.266;2023-02-22T07:42:07;56.00;45.50;29.25
73148;PMS7003;61346;48.930;2.266;2023-02-22T07:44:33;55.75;44.75;30.75
73148;PMS7003;61346;48.930;2.266;2023-02-22T07:46:59;56.75;45.25;30.00
73148;PMS7003;61346;48.930;2.266;2023-02-22T07:49:25;54.75;46.50;31.25
73148;PMS7003;61346;48.930;2.266;2023-02-22T07:51:51;55.25;45.00;30.00
73148;PMS7003;61346;48.930;2.266;2023-02-22T07:54:16;55.25;44.75;29.75
73148;PMS7003;61346;48.930;2.266;2023-02-22T07:56:45;57.50;46.25;30.75
73148;PMS7003;61346;48.930;2.266;2023-02-22T07:59:12;59.00;45.50;29.00
73148;PMS7003;61346;48.930;2.266;2023-02-22T08:01:37;57.75;46.00;30.75
73148;PMS7003;61346;48.930;2.266;2023-02-22T08:04:03;58.00;46.25;30.50
73148;PMS7003;61346;48.930;2.266;2023-02-22T08:06:28;56.25;47.00;31.00
73148;PMS7003;61346;48.930;2.266;2023-02-22T08:08:55;59.00;48.25;31.00
73148;PMS7003;61346;48.930;2.266;2023-02-22T08:11:21;58.50;48.00;31.00
73148;PMS7003;61346;48.930;2.266;2023-02-22T08:13:46;26.25;18.75;13.00
73148;PMS7003;61346;48.930;2.266;2023-02-22T08:16:12;62.00;48.25;31.25
73148;PMS7003;61346;48.930;2.266;2023-02-22T08:18:37;58.75;47.25;31.00
73148;PMS7003;61346;48.930;2.266;2023-02-22T08:21:05;62.50;48.25;33.25
73148;PMS7003;61346;48.930;2.266;2023-02-22T08:23:30;60.75;47.00;31.75
73148;PMS7003;61346;48.930;2.266;2023-02-22T08:26:02;54.50;44.50;30.00
73148;PMS7003;61346;48.930;2.266;2023-02-22T08:28:32;57.75;46.75;31.00
73148;PMS7003;61346;48.930;2.266;2023-02-22T08:30:57;61.25;49.00;31.50
73148;PMS7003;61346;48.930;2.266;2023-02-22T08:33:23;60.50;48.25;32.50
73148;PMS7003;61346;48.930;2.266;2023-02-22T08:35:49;60.75;48.00;31.25
73148;PMS7003;61346;48.930;2.266;2023-02-22T08:38:26;57.75;46.50;30.50
73148;PMS7003;61346;48.930;2.266;2023-02-22T08:40:54;58.25;47.25;31.50
73148;PMS7003;61346;48.930;2.266;2023-02-22T08:43:20;60.00;48.75;33.00
73148;PMS7003;61346;48.930;2.266;2023-02-22T08:45:46;58.00;47.25;32.75
73148;PMS7003;61346;48.930;2.266;2023-02-22T08:48:13;61.00;47.75;31.25
73148;PMS7003;61346;48.930;2.266;2023-02-22T08:50:39;61.50;49.00;31.50
73148;PMS7003;61346;48.930;2.266;2023-02-22T08:53:09;60.75;48.00;32.25
73148;PMS7003;61346;48.930;2.266;2023-02-22T08:55:38;60.00;48.50;31.00
73148;PMS7003;61346;48.930;2.266;2023-02-22T08:58:04;58.50;47.00;30.75
73148;PMS7003;61346;48.930;2.266;2023-02-22T09:00:33;62.50;50.50;31.75
73148;PMS7003;61346;48.930;2.266;2023-02-22T09:03:00;62.50;51.00;32.25
73148;PMS7003;61346;48.930;2.266;2023-02-22T09:05:27;59.50;48.50;31.00
73148;PMS7003;61346;48.930;2.266;2023-02-22T09:07:52;64.50;50.25;33.00
73148;PMS7003;61346;48.930;2.266;2023-02-22T09:10:22;63.25;51.00;32.00
73148;PMS7003;61346;48.930;2.266;2023-02-22T09:12:53;66.00;50.75;32.00
73148;PMS7003;61346;48.930;2.266;2023-02-22T09:15:22;67.50;52.25;33.00
73148;PMS7003;61346;48.930;2.266;2023-02-22T09:17:49;55.50;46.50;29.75
73148;PMS7003;61346;48.930;2.266;2023-02-22T09:20:18;63.50;49.75;32.50
73148;PMS7003;61346;48.930;2.266;2023-02-22T09:22:45;62.75;49.25;32.00
73148;PMS7003;61346;48.930;2.266;2023-02-22T09:25:12;61.75;50.25;32.00
73148;PMS7003;61346;48.930;2.266;2023-02-22T09:27:38;59.50;47.00;31.25
73148;PMS7003;61346;48.930;2.266;2023-02-22T09:30:06;60.00;49.25;32.50
73148;PMS7003;61346;48.930;2.266;2023-02-22T09:32:35;58.00;47.25;30.00
73148;PMS7003;61346;48.930;2.266;2023-02-22T09:35:01;60.75;48.75;30.25
73148;PMS7003;61346;48.930;2.266;2023-02-22T09:37:27;58.50;48.50;31.00
73148;PMS7003;61346;48.930;2.266;2023-02-22T09:39:52;63.25;51.75;34.00
73148;PMS7003;61346;48.930;2.266;2023-02-22T09:42:39;62.00;49.25;33.50
73148;PMS7003;61346;48.930;2.266;2023-02-22T09:45:17;58.25;48.00;30.75
73148;PMS7003;61346;48.930;2.266;2023-02-22T09:47:54;49.50;37.75;26.50
73148;PMS7003;61346;48.930;2.266;2023-02-22T09:50:29;63.25;50.50;32.75
73148;PMS7003;61346;48.930;2.266;2023-02-22T09:53:19;63.25;50.00;32.00
73148;PMS7003;61346;48.930;2.266;2023-02-22T09:58:48;59.00;47.00;30.25
73148;PMS7003;61346;48.930;2.266;2023-02-22T10:01:22;63.25;50.00;33.00
73148;PMS7003;61346;48.930;2.266;2023-02-22T10:07:11;64.00;49.25;32.25
73148;PMS7003;61346;48.930;2.266;2023-02-22T10:09:58;56.50;48.00;31.00
73148;PMS7003;61346;48.930;2.266;2023-02-22T10:12:40;62.25;49.75;32.25
73148;PMS7003;61346;48.930;2.266;2023-02-22T10:23:57;59.25;48.75;31.00
73148;PMS7003;61346;48.930;2.266;2023-02-22T10:26:47;61.75;50.00;32.50
73148;PMS7003;61346;48.930;2.266;2023-02-22T10:32:15;60.50;48.25;30.25
73148;PMS7003;61346;48.930;2.266;2023-02-22T10:34:56;69.00;53.00;34.00
73148;PMS7003;61346;48.930;2.266;2023-02-22T10:39:56;55.25;45.00;30.50
73148;PMS7003;61346;48.930;2.266;2023-02-22T10:42:30;59.00;48.75;30.75
73148;PMS7003;61346;48.930;2.266;2023-02-22T10:44:55;58.25;47.75;31.00
73148;PMS7003;61346;48.930;2.266;2023-02-22T10:47:21;62.25;50.25;32.75
73148;PMS7003;61346;48.930;2.266;2023-02-22T10:49:50;62.25;48.75;33.50
73148;PMS7003;61346;48.930;2.266;2023-02-22T10:52:27;68.50;52.75;32.00
73148;PMS7003;61346;48.930;2.266;2023-02-22T10:54:56;64.00;49.75;33.25
73148;PMS7003;61346;48.930;2.266;2023-02-22T10:57:28;66.50;51.75;33.25
73148;PMS7003;61346;48.930;2.266;2023-02-22T11:00:49;63.50;49.50;32.75
73148;PMS7003;61346;48.930;2.266;2023-02-22T11:03:19;61.50;49.25;32.25
73148;PMS7003;61346;48.930;2.266;2023-02-22T11:09:48;63.75;49.25;33.25
73148;PMS7003;61346;48.930;2.266;2023-02-22T11:12:38;62.75;48.50;31.00
73148;PMS7003;61346;48.930;2.266;2023-02-22T11:18:33;60.25;48.00;30.75
73148;PMS7003;61346;48.930;2.266;2023-02-22T11:21:04;69.00;54.00;34.25
73148;PMS7003;61346;48.930;2.266;2023-02-22T12:42:12;53.75;42.75;27.25
73148;PMS7003;61346;48.930;2.266;2023-02-22T12:44:43;52.25;41.75;29.00
73148;PMS7003;61346;48.930;2.266;2023-02-22T12:47:20;57.00;45.00;29.75
73148;PMS7003;61346;48.930;2.266;2023-02-22T12:50:05;55.00;43.50;28.25
73148;PMS7003;61346;48.930;2.266;2023-02-22T12:56:16;52.75;41.25;27.25
73148;PMS7003;61346;48.930;2.266;2023-02-22T12:59:22;64.00;50.25;32.75
73148;PMS7003;61346;48.930;2.266;2023-02-22T13:20:31;54.75;46.25;29.75
73148;PMS7003;61346;48.930;2.266;2023-02-22T13:30:00;56.25;46.50;29.25
73148;PMS7003;61346;48.930;2.266;2023-02-22T14:42:46;58.75;45.75;31.00
73148;PMS7003;61346;48.930;2.266;2023-02-22T16:24:32;35.25;32.50;22.00
73148;PMS7003;61346;48.930;2.266;2023-02-22T18:31:06;46.25;39.00;25.00
73148;PMS7003;61346;48.930;2.266;2023-02-22T18:33:32;49.50;37.00;24.00
73148;PMS7003;61346;48.930;2.266;2023-02-22T18:35:58;48.50;39.00;25.25
73148;PMS7003;61346;48.930;2.266;2023-02-22T18:38:23;48.50;39.25;26.00
73148;PMS7003;61346;48.930;2.266;2023-02-22T18:43:35;51.25;40.75;26.50
73148;PMS7003;61346;48.930;2.266;2023-02-22T20:46:10;41.50;36.50;25.25
73148;PMS7003;61346;48.930;2.266;2023-02-22T21:50:22;39.00;34.00;23.75
73148;PMS7003;61346;48.930;2.266;2023-02-22T21:52:49;42.00;35.50;23.50
73148;PMS7003;61346;48.930;2.266;2023-02-22T21:55:33;41.75;36.00;22.75
73148;PMS7003;61346;48.930;2.266;2023-02-22T21:57:59;29.50;26.50;18.50
73148;PMS7003;61346;48.930;2.266;2023-02-22T22:00:24;37.00;33.75;22.00
73148;PMS7003;61346;48.930;2.266;2023-02-22T22:03:17;29.25;24.50;16.25
73148;PMS7003;61346;48.930;2.266;2023-02-22T22:05:46;36.50;32.00;21.75
73148;PMS7003;61346;48.930;2.266;2023-02-22T22:08:13;41.25;33.00;22.75
73148;PMS7003;61346;48.930;2.266;2023-02-22T22:10:51;32.75;29.25;19.50
73148;PMS7003;61346;48.930;2.266;2023-02-22T22:13:22;37.75;35.25;22.00
73148;PMS7003;61346;48.930;2.266;2023-02-22T22:15:58;38.25;32.50;21.75
73148;PMS7003;61346;48.930;2.266;2023-02-22T22:18:27;39.75;32.25;22.25
73148;PMS7003;61346;48.930;2.266;2023-02-22T22:24:18;35.00;31.75;20.25
73148;PMS7003;61346;48.930;2.266;2023-02-22T22:26:46;33.50;30.75;21.75
73148;PMS7003;61346;48.930;2.266;2023-02-22T22:29:18;27.50;26.50;19.75
73148;PMS7003;61346;48.930;2.266;2023-02-22T22:31:43;25.25;24.75;15.50
73148;PMS7003;61346;48.930;2.266;2023-02-22T22:34:09;25.25;25.25;16.75
73148;PMS7003;61346;48.930;2.266;2023-02-22T22:39:30;28.25;27.00;20.25
73148;PMS7003;61346;48.930;2.266;2023-02-22T22:41:55;25.50;24.00;16.00
73148;PMS7003;61346;48.930;2.266;2023-02-22T22:44:24;29.25;24.25;16.25
73148;PMS7003;61346;48.930;2.266;2023-02-22T22:47:10;30.25;27.25;18.75
73148;PMS7003;61346;48.930;2.266;2023-02-22T22:49:36;29.50;24.50;15.75
73148;PMS7003;61346;48.930;2.266;2023-02-22T22:52:07;33.50;29.75;19.50
73148;PMS7003;61346;48.930;2.266;2023-02-22T22:54:55;31.25;31.00;19.75
73148;PMS7003;61346;48.930;2.266;2023-02-22T22:57:32;28.75;26.50;16.75
73148;PMS7003;61346;48.930;2.266;2023-02-22T22:59:57;31.75;28.00;18.50
73148;PMS7003;61346;48.930;2.266;2023-02-22T23:02:24;23.50;22.75;16.50
73148;PMS7003;61346;48.930;2.266;2023-02-22T23:04:49;29.75;28.75;18.00
73148;PMS7003;61346;48.930;2.266;2023-02-22T23:07:15;29.00;25.00;16.00
73148;PMS7003;61346;48.930;2.266;2023-02-22T23:09:41;29.25;26.25;17.50
73148;PMS7003;61346;48.930;2.266;2023-02-22T23:12:11;29.00;27.25;18.00
73148;PMS7003;61346;48.930;2.266;2023-02-22T23:14:55;24.00;23.25;16.25
73148;PMS7003;61346;48.930;2.266;2023-02-22T23:17:22;21.25;16.75;10.50
73148;PMS7003;61346;48.930;2.266;2023-02-22T23:20:09;20.75;19.25;13.50
73148;PMS7003;61346;48.930;2.266;2023-02-22T23:22:36;21.75;21.75;14.00
73148;PMS7003;61346;48.930;2.266;2023-02-22T23:25:03;20.25;19.75;11.00
73148;PMS7003;61346;48.930;2.266;2023-02-22T23:27:37;28.25;23.25;14.50
73148;PMS7003;61346;48.930;2.266;2023-02-22T23:30:03;21.75;18.00;13.00
73148;PMS7003;61346;48.930;2.266;2023-02-22T23:32:46;23.25;20.00;14.00
73148;PMS7003;61346;48.930;2.266;2023-02-22T23:35:36;20.25;20.25;14.75
73148;PMS7003;61346;48.930;2.266;2023-02-22T23:38:03;22.25;20.00;10.00
73148;PMS7003;61346;48.930;2.266;2023-02-22T23:40:31;23.50;21.00;13.75
73148;PMS7003;61346;48.930;2.266;2023-02-22T23:42:57;22.50;20.25;14.00
73148;PMS7003;61346;48.930;2.266;2023-02-22T23:45:22;29.25;23.50;16.00
73148;PMS7003;61346;48.930;2.266;2023-02-22T23:47:57;20.50;17.25;11.50
73148;PMS7003;61346;48.930;2.266;2023-02-22T23:50:27;19.25;19.25;12.00
73148;PMS7003;61346;48.930;2.266;2023-02-22T23:52:54;21.25;18.25;10.00
73148;PMS7003;61346;48.930;2.266;2023-02-22T23:55:22;31.75;21.50;14.25
73148;PMS7003;61346;48.930;2.266;2023-02-22T23:57:49;20.75;19.50;14.00
